createdAt,value
2018-09-24T00:00:11.413Z,0.00
2018-09-24T00:01:11.319Z,0.00
2018-09-24T00:02:11.383Z,0.00
2018-09-24T00:03:11.547Z,0.00
2018-09-24T00:04:11.499Z,0.00
2018-09-24T00:05:11.563Z,0.00
2018-09-24T00:06:11.628Z,0.00
2018-09-24T00:07:11.687Z,0.00
2018-09-24T00:08:11.752Z,0.00
2018-09-24T00:09:11.815Z,0.00
2018-09-24T00:10:11.867Z,0.00
2018-09-24T00:11:11.931Z,0.00
2018-09-24T00:12:11.991Z,0.00
2018-09-24T00:13:12.059Z,0.00
2018-09-24T00:14:12.120Z,0.00
2018-09-24T00:15:12.178Z,0.00
2018-09-24T00:16:12.235Z,0.00
2018-09-24T00:17:12.300Z,0.00
2018-09-24T00:18:12.368Z,0.00
2018-09-24T00:19:12.432Z,0.00
2018-09-24T00:20:12.483Z,0.00
2018-09-24T00:21:12.547Z,0.00
2018-09-24T00:22:12.609Z,0.00
2018-09-24T00:23:12.671Z,0.00
2018-09-24T00:24:12.740Z,0.00
2018-09-24T00:25:12.792Z,0.00
2018-09-24T00:26:12.853Z,0.00
2018-09-24T00:27:12.915Z,0.00
2018-09-24T00:28:12.976Z,0.00
2018-09-24T00:29:13.040Z,0.00
2018-09-24T00:30:13.096Z,0.00
2018-09-24T00:31:13.157Z,0.00
2018-09-24T00:32:13.220Z,0.00
2018-09-24T00:33:13.396Z,0.00
2018-09-24T00:34:13.340Z,0.00
2018-09-24T00:35:13.401Z,0.00
2018-09-24T00:36:13.456Z,0.00
2018-09-24T00:37:13.528Z,0.00
2018-09-24T00:38:13.592Z,0.00
2018-09-24T00:39:13.652Z,0.00
2018-09-24T00:40:13.705Z,0.00
2018-09-24T00:41:13.768Z,0.00
2018-09-24T00:42:13.829Z,0.00
2018-09-24T00:43:13.899Z,0.00
2018-09-24T00:44:13.956Z,0.00
2018-09-24T00:45:14.012Z,0.00
2018-09-24T00:46:14.072Z,0.00
2018-09-24T00:47:14.138Z,0.00
2018-09-24T00:48:14.216Z,0.00
2018-09-24T00:49:14.257Z,0.00
2018-09-24T00:50:14.320Z,0.00
2018-09-24T00:51:14.381Z,0.00
2018-09-24T00:52:14.441Z,0.00
2018-09-24T00:53:14.509Z,0.00
2018-09-24T00:54:14.569Z,0.00
2018-09-24T00:55:14.625Z,0.00
2018-09-24T00:56:14.685Z,0.00
2018-09-24T00:57:14.746Z,0.00
2018-09-24T00:58:14.813Z,0.00
2018-09-24T00:59:14.881Z,0.00
2018-09-24T01:00:14.949Z,0.00
2018-09-24T01:01:14.989Z,0.00
2018-09-24T01:02:15.053Z,0.00
2018-09-24T01:03:15.221Z,0.00
2018-09-24T01:04:15.173Z,0.00
2018-09-24T01:05:15.237Z,0.00
2018-09-24T01:06:15.297Z,0.00
2018-09-24T01:07:15.360Z,0.00
2018-09-24T01:08:15.425Z,0.00
2018-09-24T01:09:15.491Z,0.00
2018-09-24T01:10:15.541Z,0.00
2018-09-24T01:11:15.601Z,0.00
2018-09-24T01:12:15.661Z,0.00
2018-09-24T01:13:15.730Z,0.00
2018-09-24T01:14:15.793Z,0.00
2018-09-24T01:15:15.845Z,0.00
2018-09-24T01:16:15.915Z,0.00
2018-09-24T01:17:15.969Z,0.00
2018-09-24T01:18:16.038Z,0.00
2018-09-24T01:19:16.097Z,0.00
2018-09-24T01:20:16.157Z,0.00
2018-09-24T01:21:16.217Z,0.00
2018-09-24T01:22:16.273Z,0.00
2018-09-24T01:23:16.342Z,0.00
2018-09-24T01:24:16.402Z,0.00
2018-09-24T01:25:16.460Z,0.00
2018-09-24T01:26:16.521Z,0.00
2018-09-24T01:27:16.582Z,0.00
2018-09-24T01:28:16.646Z,0.00
2018-09-24T01:29:16.710Z,0.00
2018-09-24T01:30:16.762Z,0.00
2018-09-24T01:31:16.826Z,0.00
2018-09-24T01:32:16.886Z,0.00
2018-09-24T01:33:16.958Z,0.00
2018-09-24T01:34:17.014Z,0.00
2018-09-24T01:35:17.074Z,0.00
2018-09-24T01:36:17.130Z,0.00
2018-09-24T01:37:17.191Z,0.00
2018-09-24T01:38:17.286Z,0.00
2018-09-24T01:39:17.314Z,0.00
2018-09-24T01:40:17.374Z,0.00
2018-09-24T01:41:17.434Z,0.00
2018-09-24T01:42:17.495Z,0.00
2018-09-24T01:43:17.566Z,0.00
2018-09-24T01:44:17.627Z,0.00
2018-09-24T01:45:17.683Z,0.00
2018-09-24T01:46:17.743Z,0.00
2018-09-24T01:47:17.802Z,0.00
2018-09-24T01:48:17.871Z,0.00
2018-09-24T01:49:17.933Z,0.00
2018-09-24T01:50:17.987Z,0.00
2018-09-24T01:51:18.051Z,0.00
2018-09-24T01:52:18.115Z,0.00
2018-09-24T01:53:18.531Z,0.00
2018-09-24T01:54:18.230Z,0.00
2018-09-24T01:55:18.295Z,0.00
2018-09-24T01:56:18.355Z,0.00
2018-09-24T01:57:18.419Z,0.00
2018-09-24T01:58:18.477Z,0.00
2018-09-24T01:59:18.633Z,0.00
2018-09-24T02:00:18.599Z,0.00
2018-09-24T02:01:18.669Z,0.00
2018-09-24T02:02:18.727Z,0.00
2018-09-24T02:03:18.783Z,0.00
2018-09-24T02:04:18.858Z,0.00
2018-09-24T02:05:18.920Z,0.00
2018-09-24T02:06:18.967Z,0.00
2018-09-24T02:07:19.027Z,0.00
2018-09-24T02:08:19.092Z,0.00
2018-09-24T02:09:19.256Z,0.00
2018-09-24T02:10:19.212Z,0.00
2018-09-24T02:11:19.272Z,0.00
2018-09-24T02:12:19.332Z,0.00
2018-09-24T02:13:19.395Z,0.00
2018-09-24T02:14:19.467Z,0.00
2018-09-24T02:15:19.524Z,0.00
2018-09-24T02:16:19.576Z,0.00
2018-09-24T02:17:19.645Z,0.00
2018-09-24T02:18:19.700Z,0.00
2018-09-24T02:19:19.768Z,0.00
2018-09-24T02:20:19.832Z,0.00
2018-09-24T02:21:19.884Z,0.00
2018-09-24T02:22:19.944Z,0.00
2018-09-24T02:23:20.004Z,0.00
2018-09-24T02:24:20.176Z,0.00
2018-09-24T02:25:20.129Z,0.00
2018-09-24T02:26:20.188Z,0.00
2018-09-24T02:27:20.257Z,0.00
2018-09-24T02:28:20.308Z,0.00
2018-09-24T02:29:20.380Z,0.00
2018-09-24T02:30:20.441Z,0.00
2018-09-24T02:31:20.492Z,0.00
2018-09-24T02:32:20.552Z,0.00
2018-09-24T02:33:20.617Z,0.00
2018-09-24T02:34:20.685Z,0.00
2018-09-24T02:35:20.745Z,0.00
2018-09-24T02:36:20.797Z,0.00
2018-09-24T02:37:20.860Z,0.00
2018-09-24T02:38:20.920Z,0.00
2018-09-24T02:39:20.989Z,0.00
2018-09-24T02:40:21.049Z,0.00
2018-09-24T02:41:21.105Z,0.00
2018-09-24T02:42:21.165Z,0.00
2018-09-24T02:43:21.230Z,0.00
2018-09-24T02:44:21.469Z,0.00
2018-09-24T02:45:21.349Z,0.00
2018-09-24T02:46:21.409Z,0.00
2018-09-24T02:47:21.469Z,0.00
2018-09-24T02:48:21.530Z,0.00
2018-09-24T02:49:21.597Z,0.00
2018-09-24T02:50:21.662Z,0.00
2018-09-24T02:51:21.713Z,0.00
2018-09-24T02:52:21.782Z,0.00
2018-09-24T02:53:21.842Z,0.00
2018-09-24T02:54:21.905Z,0.00
2018-09-24T02:55:21.966Z,0.00
2018-09-24T02:56:22.017Z,0.00
2018-09-24T02:57:22.082Z,0.00
2018-09-24T02:58:22.152Z,0.00
2018-09-24T02:59:22.268Z,0.00
2018-09-24T03:00:22.267Z,0.00
2018-09-24T03:01:22.397Z,0.00
2018-09-24T03:02:22.386Z,0.00
2018-09-24T03:03:22.454Z,0.00
2018-09-24T03:04:22.514Z,0.00
2018-09-24T03:05:22.574Z,0.00
2018-09-24T03:06:22.634Z,0.00
2018-09-24T03:07:22.690Z,0.00
2018-09-24T03:08:22.755Z,0.00
2018-09-24T03:09:22.822Z,0.00
2018-09-24T03:10:22.878Z,0.00
2018-09-24T03:11:22.938Z,0.00
2018-09-24T03:12:22.995Z,0.00
2018-09-24T03:13:23.059Z,0.00
2018-09-24T03:14:23.142Z,0.00
2018-09-24T03:15:23.178Z,0.00
2018-09-24T03:16:23.238Z,0.00
2018-09-24T03:17:23.298Z,0.00
2018-09-24T03:18:23.363Z,0.00
2018-09-24T03:19:23.426Z,0.00
2018-09-24T03:20:23.487Z,0.00
2018-09-24T03:21:23.543Z,0.00
2018-09-24T03:22:23.603Z,0.00
2018-09-24T03:23:23.667Z,0.00
2018-09-24T03:24:23.731Z,0.00
2018-09-24T03:25:23.795Z,0.00
2018-09-24T03:26:23.898Z,0.00
2018-09-24T03:27:23.911Z,0.00
2018-09-24T03:28:23.972Z,0.00
2018-09-24T03:29:24.040Z,0.00
2018-09-24T03:30:24.125Z,0.00
2018-09-24T03:31:24.154Z,0.00
2018-09-24T03:32:24.211Z,0.00
2018-09-24T03:33:24.276Z,0.00
2018-09-24T03:34:24.700Z,0.00
2018-09-24T03:35:24.395Z,0.00
2018-09-24T03:36:24.455Z,0.00
2018-09-24T03:37:24.523Z,0.00
2018-09-24T03:38:24.579Z,0.00
2018-09-24T03:39:24.639Z,0.00
2018-09-24T03:40:24.745Z,0.00
2018-09-24T03:41:24.759Z,0.00
2018-09-24T03:42:24.823Z,0.00
2018-09-24T03:43:24.884Z,0.00
2018-09-24T03:44:24.944Z,0.00
2018-09-24T03:45:25.011Z,0.00
2018-09-24T03:46:25.076Z,0.00
2018-09-24T03:47:25.127Z,0.00
2018-09-24T03:48:25.189Z,0.00
2018-09-24T03:49:25.252Z,0.00
2018-09-24T03:50:25.308Z,0.00
2018-09-24T03:51:25.560Z,0.00
2018-09-24T03:52:25.433Z,0.00
2018-09-24T03:53:25.492Z,0.00
2018-09-24T03:54:25.552Z,0.00
2018-09-24T03:55:25.616Z,0.00
2018-09-24T03:56:25.679Z,0.00
2018-09-24T03:57:25.744Z,0.00
2018-09-24T03:58:25.796Z,0.00
2018-09-24T03:59:25.862Z,0.00
2018-09-24T04:00:25.920Z,0.00
2018-09-24T04:01:25.985Z,0.00
2018-09-24T04:02:26.048Z,0.00
2018-09-24T04:03:26.100Z,0.00
2018-09-24T04:04:26.161Z,0.00
2018-09-24T04:05:26.220Z,0.00
2018-09-24T04:06:26.304Z,0.00
2018-09-24T04:07:26.344Z,0.00
2018-09-24T04:08:26.405Z,0.00
2018-09-24T04:09:26.481Z,0.00
2018-09-24T04:10:26.530Z,0.00
2018-09-24T04:11:26.596Z,0.00
2018-09-24T04:12:26.652Z,0.00
2018-09-24T04:13:26.711Z,0.00
2018-09-24T04:14:26.777Z,0.00
2018-09-24T04:15:26.829Z,0.00
2018-09-24T04:16:26.896Z,0.00
2018-09-24T04:17:26.956Z,0.00
2018-09-24T04:18:27.013Z,0.00
2018-09-24T04:19:27.102Z,0.00
2018-09-24T04:20:27.135Z,0.00
2018-09-24T04:21:27.309Z,0.00
2018-09-24T04:22:27.257Z,0.00
2018-09-24T04:23:27.321Z,0.00
2018-09-24T04:24:27.380Z,0.00
2018-09-24T04:25:27.437Z,0.00
2018-09-24T04:26:27.505Z,0.00
2018-09-24T04:27:27.565Z,0.00
2018-09-24T04:28:27.625Z,0.00
2018-09-24T04:29:27.681Z,0.00
2018-09-24T04:30:27.749Z,0.00
2018-09-24T04:31:27.808Z,0.00
2018-09-24T04:32:27.869Z,0.00
2018-09-24T04:33:27.925Z,0.00
2018-09-24T04:34:27.990Z,0.00
2018-09-24T04:35:28.045Z,0.00
2018-09-24T04:36:28.471Z,0.00
2018-09-24T04:37:28.169Z,0.00
2018-09-24T04:38:28.229Z,0.00
2018-09-24T04:39:28.374Z,0.00
2018-09-24T04:40:28.354Z,0.00
2018-09-24T04:41:28.413Z,0.00
2018-09-24T04:42:28.487Z,0.00
2018-09-24T04:43:28.526Z,0.00
2018-09-24T04:44:28.594Z,0.00
2018-09-24T04:45:28.657Z,0.00
2018-09-24T04:46:28.722Z,0.00
2018-09-24T04:47:28.782Z,0.00
2018-09-24T04:48:28.850Z,0.00
2018-09-24T04:49:28.898Z,0.00
2018-09-24T04:50:28.953Z,4.00
2018-09-24T04:51:29.019Z,4.00
2018-09-24T04:52:29.263Z,0.00
2018-09-24T04:53:29.145Z,4.00
2018-09-24T04:54:29.198Z,0.00
2018-09-24T04:55:29.258Z,4.00
2018-09-24T04:56:29.319Z,4.00
2018-09-24T04:57:29.387Z,4.00
2018-09-24T04:58:29.481Z,8.00
2018-09-24T04:59:29.502Z,8.00
2018-09-24T05:00:29.564Z,8.00
2018-09-24T05:01:29.622Z,8.00
2018-09-24T05:02:29.694Z,12.00
2018-09-24T05:03:29.751Z,16.00
2018-09-24T05:04:29.802Z,16.00
2018-09-24T05:05:29.863Z,20.00
2018-09-24T05:06:29.926Z,24.00
2018-09-24T05:07:29.995Z,28.00
2018-09-24T05:08:30.051Z,32.00
2018-09-24T05:09:30.133Z,36.00
2018-09-24T05:10:30.167Z,40.00
2018-09-24T05:11:30.227Z,48.00
2018-09-24T05:12:30.288Z,52.00
2018-09-24T05:13:30.454Z,64.00
2018-09-24T05:14:30.411Z,68.00
2018-09-24T05:15:30.475Z,80.00
2018-09-24T05:16:30.586Z,88.00
2018-09-24T05:17:30.590Z,100.00
2018-09-24T05:18:30.669Z,108.00
2018-09-24T05:19:30.719Z,120.00
2018-09-24T05:20:30.775Z,132.00
2018-09-24T05:21:30.835Z,148.00
2018-09-24T05:22:30.907Z,156.00
2018-09-24T05:23:30.963Z,172.00
2018-09-24T05:24:31.023Z,188.00
2018-09-24T05:25:31.079Z,204.00
2018-09-24T05:26:31.139Z,220.00
2018-09-24T05:27:31.203Z,236.00
2018-09-24T05:28:31.313Z,256.00
2018-09-24T05:29:31.326Z,276.00
2018-09-24T05:30:31.384Z,292.00
2018-09-24T05:31:31.439Z,312.00
2018-09-24T05:32:31.547Z,332.00
2018-09-24T05:33:31.568Z,352.00
2018-09-24T05:34:31.686Z,372.00
2018-09-24T05:35:31.684Z,396.00
2018-09-24T05:36:31.745Z,416.00
2018-09-24T05:37:31.808Z,436.00
2018-09-24T05:38:31.872Z,460.00
2018-09-24T05:39:31.932Z,480.00
2018-09-24T05:40:31.992Z,504.00
2018-09-24T05:41:32.049Z,528.00
2018-09-24T05:42:32.108Z,556.00
2018-09-24T05:43:32.441Z,584.00
2018-09-24T05:44:32.228Z,616.00
2018-09-24T05:45:32.288Z,648.00
2018-09-24T05:46:32.348Z,680.00
2018-09-24T05:47:32.413Z,708.00
2018-09-24T05:48:32.480Z,736.00
2018-09-24T05:49:32.536Z,764.00
2018-09-24T05:50:32.592Z,796.00
2018-09-24T05:51:32.656Z,820.00
2018-09-24T05:52:32.720Z,840.00
2018-09-24T05:53:32.780Z,856.00
2018-09-24T05:54:32.841Z,880.00
2018-09-24T05:55:32.906Z,920.00
2018-09-24T05:56:32.962Z,936.00
2018-09-24T05:57:33.033Z,968.00
2018-09-24T05:58:33.172Z,1016.00
2018-09-24T05:59:33.145Z,1032.00
2018-09-24T06:00:33.201Z,1024.00
2018-09-24T06:01:33.261Z,1088.00
2018-09-24T06:02:33.321Z,1212.00
2018-09-24T06:03:33.389Z,1340.00
2018-09-24T06:04:33.484Z,1448.00
2018-09-24T06:05:33.501Z,1516.00
2018-09-24T06:06:33.565Z,1524.00
2018-09-24T06:07:33.626Z,1516.00
2018-09-24T06:08:33.698Z,1548.00
2018-09-24T06:09:33.753Z,1616.00
2018-09-24T06:10:33.805Z,1712.00
2018-09-24T06:11:33.874Z,1804.00
2018-09-24T06:12:33.929Z,1852.00
2018-09-24T06:13:34.002Z,1848.00
2018-09-24T06:14:34.058Z,1892.00
2018-09-24T06:15:34.115Z,1952.00
2018-09-24T06:16:34.174Z,1980.00
2018-09-24T06:17:34.234Z,1956.00
2018-09-24T06:18:34.294Z,1848.00
2018-09-24T06:19:34.454Z,1756.00
2018-09-24T06:20:34.414Z,1700.00
2018-09-24T06:21:34.478Z,1696.00
2018-09-24T06:22:34.543Z,1724.00
2018-09-24T06:23:34.602Z,1744.00
2018-09-24T06:24:34.666Z,1724.00
2018-09-24T06:25:34.726Z,1760.00
2018-09-24T06:26:34.786Z,1768.00
2018-09-24T06:27:34.842Z,1788.00
2018-09-24T06:28:34.903Z,1804.00
2018-09-24T06:29:34.970Z,1824.00
2018-09-24T06:30:35.034Z,1848.00
2018-09-24T06:31:35.099Z,1876.00
2018-09-24T06:32:35.150Z,1908.00
2018-09-24T06:33:35.206Z,1928.00
2018-09-24T06:34:35.363Z,1948.00
2018-09-24T06:35:35.331Z,1956.00
2018-09-24T06:36:35.399Z,1968.00
2018-09-24T06:37:35.451Z,1980.00
2018-09-24T06:38:35.511Z,1996.00
2018-09-24T06:39:35.578Z,2016.00
2018-09-24T06:40:35.651Z,2036.00
2018-09-24T06:41:35.695Z,2068.00
2018-09-24T06:42:35.755Z,2096.00
2018-09-24T06:43:35.820Z,2128.00
2018-09-24T06:44:35.887Z,2156.00
2018-09-24T06:45:35.952Z,2188.00
2018-09-24T06:46:36.000Z,2228.00
2018-09-24T06:47:36.063Z,2244.00
2018-09-24T06:48:36.126Z,2272.00
2018-09-24T06:49:36.489Z,2316.00
2018-09-24T06:50:36.247Z,2368.00
2018-09-24T06:51:36.307Z,2388.00
2018-09-24T06:52:36.367Z,2392.00
2018-09-24T06:53:36.427Z,2400.00
2018-09-24T06:54:36.496Z,2416.00
2018-09-24T06:55:36.559Z,2424.00
2018-09-24T06:56:36.612Z,2448.00
2018-09-24T06:57:36.672Z,2464.00
2018-09-24T06:58:36.743Z,2480.00
2018-09-24T06:59:36.859Z,2504.00
2018-09-24T07:00:36.866Z,2512.00
2018-09-24T07:01:36.920Z,2532.00
2018-09-24T07:02:36.980Z,2552.00
2018-09-24T07:03:37.040Z,2580.00
2018-09-24T07:04:37.125Z,2620.00
2018-09-24T07:05:37.175Z,2656.00
2018-09-24T07:06:37.228Z,2700.00
2018-09-24T07:07:37.284Z,2748.00
2018-09-24T07:08:37.368Z,2812.00
2018-09-24T07:09:37.416Z,2876.00
2018-09-24T07:10:37.476Z,2900.00
2018-09-24T07:11:37.529Z,2948.00
2018-09-24T07:12:37.602Z,3012.00
2018-09-24T07:13:37.652Z,3064.00
2018-09-24T07:14:37.720Z,3136.00
2018-09-24T07:15:37.784Z,3240.00
2018-09-24T07:16:37.837Z,3360.00
2018-09-24T07:17:37.896Z,3476.00
2018-09-24T07:18:37.960Z,3540.00
2018-09-24T07:19:38.029Z,3600.00
2018-09-24T07:20:38.089Z,3708.00
2018-09-24T07:21:38.147Z,3900.00
2018-09-24T07:22:38.208Z,4128.00
2018-09-24T07:23:38.269Z,4316.00
2018-09-24T07:24:38.520Z,4476.00
2018-09-24T07:25:38.389Z,4788.00
2018-09-24T07:26:38.453Z,4808.00
2018-09-24T07:27:38.525Z,16672.00
2018-09-24T07:28:38.573Z,39520.00
2018-09-24T07:29:38.641Z,46688.00
2018-09-24T07:30:38.705Z,47616.00
2018-09-24T07:31:38.761Z,46976.00
2018-09-24T07:32:38.821Z,47040.00
2018-09-24T07:33:38.885Z,48256.00
2018-09-24T07:34:38.958Z,47616.00
2018-09-24T07:35:39.021Z,48896.00
2018-09-24T07:36:39.077Z,50400.00
2018-09-24T07:37:39.141Z,49664.00
2018-09-24T07:38:39.205Z,50048.00
2018-09-24T07:39:39.554Z,50432.00
2018-09-24T07:40:39.333Z,50016.00
2018-09-24T07:41:39.409Z,50848.00
2018-09-24T07:42:39.465Z,50848.00
2018-09-24T07:43:39.534Z,47616.00
2018-09-24T07:44:39.605Z,46080.00
2018-09-24T07:45:39.670Z,46592.00
2018-09-24T07:46:39.745Z,47296.00
2018-09-24T07:47:39.798Z,47616.00
2018-09-24T07:48:39.866Z,50112.00
2018-09-24T07:49:39.938Z,50880.00
2018-09-24T07:50:40.026Z,50272.00
2018-09-24T07:51:40.066Z,49536.00
2018-09-24T07:52:40.135Z,50400.00
2018-09-24T07:53:40.202Z,51072.00
2018-09-24T07:54:40.274Z,50656.00
2018-09-24T07:55:40.471Z,49888.00
2018-09-24T07:56:40.406Z,50656.00
2018-09-24T07:57:40.474Z,51200.00
2018-09-24T07:58:40.547Z,50336.00
2018-09-24T07:59:40.610Z,50304.00
2018-09-24T08:00:40.690Z,49440.00
2018-09-24T08:01:40.754Z,50240.00
2018-09-24T08:02:40.819Z,49792.00
2018-09-24T08:03:40.886Z,48480.00
2018-09-24T08:04:40.955Z,48544.00
2018-09-24T08:05:41.034Z,47584.00
2018-09-24T08:06:41.099Z,47168.00
2018-09-24T08:07:41.164Z,47232.00
2018-09-24T08:08:41.231Z,46112.00
2018-09-24T08:09:41.303Z,46208.00
2018-09-24T08:10:41.679Z,46592.00
2018-09-24T08:11:41.444Z,45888.00
2018-09-24T08:12:41.529Z,40288.00
2018-09-24T08:13:41.579Z,31520.00
2018-09-24T08:14:41.653Z,31968.00
2018-09-24T08:15:41.731Z,40032.00
2018-09-24T08:16:41.799Z,44608.00
2018-09-24T08:17:41.858Z,44160.00
2018-09-24T08:18:41.923Z,44160.00
2018-09-24T08:19:42.003Z,42976.00
2018-09-24T08:20:42.183Z,44000.00
2018-09-24T08:21:42.143Z,43808.00
2018-09-24T08:22:42.207Z,42048.00
2018-09-24T08:23:42.279Z,42176.00
2018-09-24T08:24:42.347Z,41984.00
2018-09-24T08:25:42.431Z,41568.00
2018-09-24T08:26:42.495Z,40704.00
2018-09-24T08:27:42.559Z,40800.00
2018-09-24T08:28:42.637Z,41728.00
2018-09-24T08:29:42.702Z,42336.00
2018-09-24T08:30:42.779Z,42400.00
2018-09-24T08:31:42.847Z,42336.00
2018-09-24T08:32:42.907Z,41824.00
2018-09-24T08:33:42.979Z,40704.00
2018-09-24T08:34:43.059Z,38496.00
2018-09-24T08:35:43.135Z,37376.00
2018-09-24T08:36:43.192Z,37248.00
2018-09-24T08:37:43.264Z,36896.00
2018-09-24T08:38:43.331Z,36736.00
2018-09-24T08:39:43.403Z,36384.00
2018-09-24T08:40:43.479Z,35680.00
2018-09-24T08:41:43.548Z,35200.00
2018-09-24T08:42:43.612Z,33888.00
2018-09-24T08:43:43.692Z,33536.00
2018-09-24T08:44:43.755Z,32320.00
2018-09-24T08:45:43.834Z,31552.00
2018-09-24T08:46:43.900Z,31296.00
2018-09-24T08:47:43.964Z,30912.00
2018-09-24T08:48:44.036Z,30432.00
2018-09-24T08:49:44.177Z,30624.00
2018-09-24T08:50:44.202Z,30208.00
2018-09-24T08:51:44.248Z,28608.00
2018-09-24T08:52:44.316Z,27968.00
2018-09-24T08:53:44.388Z,27104.00
2018-09-24T08:54:44.459Z,27232.00
2018-09-24T08:55:44.532Z,27040.00
2018-09-24T08:56:44.649Z,27552.00
2018-09-24T08:57:44.668Z,25184.00
2018-09-24T08:58:44.736Z,19392.00
2018-09-24T08:59:44.808Z,15872.00
2018-09-24T09:00:44.890Z,9664.00
2018-09-24T09:01:44.952Z,8400.00
2018-09-24T09:02:45.031Z,10656.00
2018-09-24T09:03:45.089Z,16544.00
2018-09-24T09:04:45.156Z,17440.00
2018-09-24T09:05:45.316Z,16640.00
2018-09-24T09:06:45.299Z,16640.00
2018-09-24T09:07:45.365Z,16832.00
2018-09-24T09:08:45.432Z,13880.00
2018-09-24T09:09:45.507Z,16800.00
2018-09-24T09:10:45.581Z,16000.00
2018-09-24T09:11:45.649Z,15808.00
2018-09-24T09:12:45.718Z,8620.00
2018-09-24T09:13:45.780Z,16608.00
2018-09-24T09:14:45.857Z,16288.00
2018-09-24T09:15:45.928Z,15264.00
2018-09-24T09:16:45.997Z,12712.00
2018-09-24T09:17:46.061Z,7864.00
2018-09-24T09:18:46.129Z,9072.00
2018-09-24T09:19:46.201Z,13328.00
2018-09-24T09:20:46.365Z,11524.00
2018-09-24T09:21:46.337Z,7064.00
2018-09-24T09:22:46.409Z,6524.00
2018-09-24T09:23:46.481Z,6432.00
2018-09-24T09:24:46.545Z,7428.00
2018-09-24T09:25:46.621Z,6232.00
2018-09-24T09:26:46.689Z,5792.00
2018-09-24T09:27:46.753Z,5316.00
2018-09-24T09:28:46.822Z,5316.00
2018-09-24T09:29:46.893Z,5600.00
2018-09-24T09:30:46.966Z,5624.00
2018-09-24T09:31:47.033Z,5924.00
2018-09-24T09:32:47.094Z,7908.00
2018-09-24T09:33:47.161Z,7024.00
2018-09-24T09:34:47.229Z,10080.00
2018-09-24T09:35:47.314Z,6688.00
2018-09-24T09:36:47.365Z,5072.00
2018-09-24T09:37:47.434Z,4836.00
2018-09-24T09:38:47.502Z,4952.00
2018-09-24T09:39:47.566Z,5372.00
2018-09-24T09:40:47.643Z,5672.00
2018-09-24T09:41:47.710Z,6188.00
2018-09-24T09:42:47.770Z,4596.00
2018-09-24T09:43:47.838Z,3908.00
2018-09-24T09:44:47.902Z,3636.00
2018-09-24T09:45:47.982Z,3940.00
2018-09-24T09:46:48.052Z,6956.00
2018-09-24T09:47:48.106Z,8824.00
2018-09-24T09:48:48.171Z,10448.00
2018-09-24T09:49:48.242Z,5660.00
2018-09-24T09:50:48.302Z,9680.00
2018-09-24T09:51:48.389Z,9184.00
2018-09-24T09:52:48.439Z,8712.00
2018-09-24T09:53:48.505Z,8428.00
2018-09-24T09:54:48.574Z,8296.00
2018-09-24T09:55:48.639Z,6976.00
2018-09-24T09:56:48.711Z,8268.00
2018-09-24T09:57:48.779Z,8720.00
2018-09-24T09:58:48.843Z,4476.00
2018-09-24T09:59:48.903Z,4932.00
2018-09-24T10:00:48.975Z,6688.00
2018-09-24T10:01:49.042Z,7428.00
2018-09-24T10:02:49.111Z,6780.00
2018-09-24T10:03:49.174Z,5440.00
2018-09-24T10:04:49.280Z,3736.00
2018-09-24T10:05:49.303Z,7268.00
2018-09-24T10:06:49.386Z,6904.00
2018-09-24T10:07:49.447Z,7052.00
2018-09-24T10:08:49.503Z,6840.00
2018-09-24T10:09:49.571Z,7672.00
2018-09-24T10:10:49.635Z,4352.00
2018-09-24T10:11:49.711Z,4276.00
2018-09-24T10:12:49.777Z,8048.00
2018-09-24T10:13:49.837Z,8328.00
2018-09-24T10:14:49.903Z,8060.00
2018-09-24T10:15:49.973Z,4240.00
2018-09-24T10:16:50.045Z,3980.00
2018-09-24T10:17:50.111Z,7264.00
2018-09-24T10:18:50.168Z,7516.00
2018-09-24T10:19:50.236Z,7860.00
2018-09-24T10:20:50.300Z,7972.00
2018-09-24T10:21:50.407Z,6384.00
2018-09-24T10:22:50.436Z,5028.00
2018-09-24T10:23:50.504Z,4512.00
2018-09-24T10:24:50.572Z,3560.00
2018-09-24T10:25:50.632Z,2868.00
2018-09-24T10:26:50.708Z,2808.00
2018-09-24T10:27:50.772Z,3424.00
2018-09-24T10:28:50.832Z,4860.00
2018-09-24T10:29:50.900Z,5984.00
2018-09-24T10:30:50.965Z,7476.00
2018-09-24T10:31:51.068Z,5780.00
2018-09-24T10:32:51.112Z,4772.00
2018-09-24T10:33:51.190Z,4880.00
2018-09-24T10:34:51.229Z,7304.00
2018-09-24T10:35:51.296Z,7464.00
2018-09-24T10:36:51.369Z,7440.00
2018-09-24T10:37:51.443Z,8732.00
2018-09-24T10:38:51.497Z,7620.00
2018-09-24T10:39:51.561Z,5884.00
2018-09-24T10:40:51.625Z,5228.00
2018-09-24T10:41:51.700Z,4364.00
2018-09-24T10:42:51.765Z,4116.00
2018-09-24T10:43:51.829Z,3996.00
2018-09-24T10:44:51.898Z,3972.00
2018-09-24T10:45:52.015Z,4028.00
2018-09-24T10:46:52.029Z,4080.00
2018-09-24T10:47:52.113Z,4364.00
2018-09-24T10:48:52.157Z,4616.00
2018-09-24T10:49:52.221Z,4472.00
2018-09-24T10:50:52.289Z,4004.00
2018-09-24T10:51:52.361Z,3436.00
2018-09-24T10:52:52.434Z,2920.00
2018-09-24T10:53:52.485Z,2544.00
2018-09-24T10:54:52.553Z,2256.00
2018-09-24T10:55:52.688Z,2048.00
2018-09-24T10:56:52.689Z,2076.00
2018-09-24T10:57:52.762Z,2284.00
2018-09-24T10:58:52.818Z,2420.00
2018-09-24T10:59:52.887Z,2260.00
2018-09-24T11:00:52.947Z,1812.00
2018-09-24T11:01:53.017Z,1416.00
2018-09-24T11:02:53.086Z,1216.00
2018-09-24T11:03:53.145Z,1140.00
2018-09-24T11:04:53.225Z,1228.00
2018-09-24T11:05:53.274Z,1528.00
2018-09-24T11:06:53.349Z,1936.00
2018-09-24T11:07:53.409Z,2376.00
2018-09-24T11:08:53.474Z,2664.00
2018-09-24T11:09:53.540Z,2812.00
2018-09-24T11:10:53.602Z,2900.00
2018-09-24T11:11:53.673Z,2872.00
2018-09-24T11:12:53.737Z,3148.00
2018-09-24T11:13:53.793Z,3028.00
2018-09-24T11:14:53.861Z,4580.00
2018-09-24T11:15:53.940Z,3352.00
2018-09-24T11:16:54.252Z,3452.00
2018-09-24T11:17:54.173Z,4072.00
2018-09-24T11:18:54.122Z,4016.00
2018-09-24T11:19:54.186Z,3748.00
2018-09-24T11:20:54.250Z,3752.00
2018-09-24T11:21:54.686Z,3728.00
2018-09-24T11:22:54.386Z,3752.00
2018-09-24T11:23:54.446Z,3792.00
2018-09-24T11:24:54.510Z,3808.00
2018-09-24T11:25:54.578Z,3816.00
2018-09-24T11:26:54.642Z,3848.00
2018-09-24T11:27:54.798Z,4268.00
2018-09-24T11:28:54.770Z,2940.00
2018-09-24T11:29:54.838Z,4892.00
2018-09-24T11:30:54.903Z,5324.00
2018-09-24T11:31:54.966Z,3788.00
2018-09-24T11:32:55.038Z,5964.00
2018-09-24T11:33:55.102Z,3648.00
2018-09-24T11:34:55.162Z,3648.00
2018-09-24T11:35:55.230Z,3420.00
2018-09-24T11:36:55.295Z,3548.00
2018-09-24T11:37:55.367Z,5880.00
2018-09-24T11:38:55.430Z,6308.00
2018-09-24T11:39:55.494Z,6264.00
2018-09-24T11:40:55.558Z,4420.00
2018-09-24T11:41:55.619Z,5532.00
2018-09-24T11:42:55.694Z,4148.00
2018-09-24T11:43:55.763Z,4136.00
2018-09-24T11:44:55.814Z,4392.00
2018-09-24T11:45:55.899Z,4752.00
2018-09-24T11:46:56.057Z,5524.00
2018-09-24T11:47:56.022Z,6100.00
2018-09-24T11:48:56.083Z,4560.00
2018-09-24T11:49:56.144Z,3812.00
2018-09-24T11:50:56.211Z,3324.00
2018-09-24T11:51:56.275Z,3160.00
2018-09-24T11:52:56.394Z,3116.00
2018-09-24T11:53:56.415Z,3092.00
2018-09-24T11:54:56.474Z,2956.00
2018-09-24T11:55:56.543Z,2908.00
2018-09-24T11:56:56.603Z,2472.00
2018-09-24T11:57:56.676Z,3120.00
2018-09-24T11:58:56.739Z,2492.00
2018-09-24T11:59:56.803Z,3108.00
2018-09-24T12:00:56.863Z,3132.00
2018-09-24T12:01:56.965Z,3332.00
2018-09-24T12:02:56.999Z,3372.00
2018-09-24T12:03:57.067Z,3616.00
2018-09-24T12:04:57.123Z,5268.00
2018-09-24T12:05:57.191Z,3396.00
2018-09-24T12:06:57.256Z,3552.00
2018-09-24T12:07:57.448Z,3208.00
2018-09-24T12:08:57.387Z,5140.00
2018-09-24T12:09:57.455Z,5008.00
2018-09-24T12:10:57.524Z,3108.00
2018-09-24T12:11:57.583Z,4428.00
2018-09-24T12:12:57.656Z,4356.00
2018-09-24T12:13:57.723Z,4364.00
2018-09-24T12:14:57.780Z,4388.00
2018-09-24T12:15:57.846Z,2124.00
2018-09-24T12:16:57.907Z,1976.00
2018-09-24T12:17:58.021Z,1932.00
2018-09-24T12:18:58.048Z,1976.00
2018-09-24T12:19:58.104Z,4068.00
2018-09-24T12:20:58.168Z,2088.00
2018-09-24T12:21:58.236Z,2220.00
2018-09-24T12:22:58.329Z,2484.00
2018-09-24T12:23:58.369Z,2876.00
2018-09-24T12:24:58.429Z,4788.00
2018-09-24T12:25:58.499Z,5648.00
2018-09-24T12:26:58.560Z,5904.00
2018-09-24T12:27:58.632Z,6168.00
2018-09-24T12:28:58.697Z,6512.00
2018-09-24T12:29:58.757Z,5264.00
2018-09-24T12:30:58.825Z,5068.00
2018-09-24T12:31:58.889Z,7008.00
2018-09-24T12:32:58.956Z,6804.00